Riverside, PA (17868)

05:09 AM EDT del 23 Luglio 2016 (GMT -0400)
APRSWXNET | | Change Station

Alt. 509 ft 40.96 °N, 76.58 °W | Updated 47 minutes ago

Clear
Sereno
69 °F
Sembra 69 °F
N
0
Vento Variabile Vento da SO
Gusts 0.0 mph

Oggi
Massima -- | Minima -- °F
--% Possibilità di precip.
Ieri
Massima -- | Minima -- °F
Precip. -- in
Pressione 29.90 in
Visibilità 6.0 miglia
Nuvole Sereno
Punto di rugiada 67 °F
Umidità 92%
Piovosità in
Spessore del manto nevoso Non disponibile.
5:54 AM 8:30 PM
Gobba a levante, 86% visible
METAR KSEG 230853Z AUTO 00000KT 6SM BR CLR 20/20 A2992 RMK AO2 SLP125 T02000200 53003
Pressione 29.90 in
Visibilità 6.0 miglia
Nuvole Sereno
Punto di rugiada 67 °F
Umidità 92%
Piovosità in
Spessore del manto nevoso Non disponibile.
5:54 AM 8:30 PM
Gobba a levante, 86% visible
METAR KSEG 230853Z AUTO 00000KT 6SM BR CLR 20/20 A2992 RMK AO2 SLP125 T02000200 53003

10-Day Weather Forecast

Almanac

Astronomia

Jul. 23, 2016 Alba Tramonto
Ora attuale
Crepuscolo civile
Crepuscolo nautico
Crepuscolo astronomico
Luna
Estensione della luce visibile
Lunghezza del giorno
Tomorrow will be .
, % of the Moon is Illuminated

Gli estremi di oggi

State Highs State Lows

Community

WunderPhotos

Upload Photos

1,926,790 foto caricate!

WunderBlog® & News

Nearby

Qualità dell'aria

  Qualità dell'aria Indice AQ Inquinante
Not available.

Profondità neve

Stazione Profondità Altitudine

Attività sismica

Città  Distanza Mag. Data & Ora
Minimo Magnitudo Mostrato è 2.5.

Temperature delle acque costiere

Località Temperatura

Stations

Stazioni meteo nelle vicinanze

Ubicazione della stazione Temp. Raffreddamento del vento Punto di rugiada Umidità Vento Precip. Alt. Aggiornato Tipo
                   

Watches & Warnings

There are currently no watches in effect.